createdAt,value
2022-12-15T00:02:20.106Z,-1.30
2022-12-15T00:05:05.761Z,-1.20
2022-12-15T00:07:51.807Z,-1.20
2022-12-15T00:10:37.962Z,-1.20
2022-12-15T00:13:29.311Z,-1.20
2022-12-15T00:16:15.095Z,-1.20
2022-12-15T00:19:01.628Z,-1.20
2022-12-15T00:21:47.481Z,-1.20
2022-12-15T00:24:32.934Z,-1.20
2022-12-15T00:27:18.381Z,-1.20
2022-12-15T00:30:03.920Z,-1.20
2022-12-15T00:32:49.468Z,-1.30
2022-12-15T00:35:36.453Z,-1.40
2022-12-15T00:38:26.596Z,-1.40
2022-12-15T00:40:58.844Z,-1.40
2022-12-15T00:43:27.085Z,-1.30
2022-12-15T00:46:12.520Z,-1.30
2022-12-15T00:48:40.920Z,-1.30
2022-12-15T00:51:09.757Z,-1.40
2022-12-15T00:53:55.160Z,-1.30
2022-12-15T00:56:40.650Z,-1.40
2022-12-15T00:59:26.179Z,-1.50
2022-12-15T01:02:11.866Z,-1.60
2022-12-15T01:04:57.069Z,-1.50
2022-12-15T01:07:44.250Z,-1.50
2022-12-15T01:10:35.436Z,-1.50
2022-12-15T01:13:20.912Z,-1.50
2022-12-15T01:16:06.320Z,-1.40
2022-12-15T01:18:52.504Z,-1.40
2022-12-15T01:21:24.764Z,-1.30
2022-12-15T01:23:54.623Z,-1.30
2022-12-15T01:26:22.492Z,-1.30
2022-12-15T01:28:50.359Z,-1.30
2022-12-15T01:31:18.306Z,-1.20
2022-12-15T01:33:46.215Z,-1.30
2022-12-15T01:36:14.226Z,-1.30
2022-12-15T01:38:42.632Z,-1.30
2022-12-15T01:41:12.309Z,-1.30
2022-12-15T01:43:41.689Z,-1.30
2022-12-15T01:46:11.252Z,-1.30
2022-12-15T01:48:43.009Z,-1.40
2022-12-15T01:51:18.912Z,-1.30
2022-12-15T01:53:54.511Z,-1.30
2022-12-15T01:56:25.859Z,-1.40
2022-12-15T01:58:58.653Z,-1.40
2022-12-15T02:01:26.786Z,-1.40
2022-12-15T02:03:54.858Z,-1.50
2022-12-15T02:06:25.597Z,-1.60
2022-12-15T02:08:55.572Z,-1.60
2022-12-15T02:11:39.661Z,-1.60
2022-12-15T02:14:09.767Z,-1.60
2022-12-15T02:16:54.488Z,-1.60
2022-12-15T02:20:03.863Z,-1.60
2022-12-15T02:22:47.573Z,-1.60
2022-12-15T02:25:40.662Z,-1.60
2022-12-15T02:28:14.191Z,-1.60
2022-12-15T02:31:07.907Z,-1.60
2022-12-15T02:33:38.949Z,-1.60
2022-12-15T02:36:13.663Z,-1.60
2022-12-15T02:38:42.460Z,-1.60
2022-12-15T02:41:35.605Z,-1.60
2022-12-15T02:44:08.198Z,-1.60
2022-12-15T02:46:50.491Z,-1.70
2022-12-15T02:49:24.281Z,-1.80
2022-12-15T02:52:05.665Z,-1.80
2022-12-15T02:54:58.875Z,-1.80
2022-12-15T02:57:37.456Z,-1.80
2022-12-15T03:00:07.813Z,-1.70
2022-12-15T03:02:39.964Z,-1.70
2022-12-15T03:05:09.428Z,-1.70
2022-12-15T03:07:37.188Z,-1.80
2022-12-15T03:10:07.536Z,-1.70
2022-12-15T03:12:35.385Z,-1.70
2022-12-15T03:15:03.246Z,-1.60
2022-12-15T03:17:31.001Z,-1.70
2022-12-15T03:20:00.248Z,-1.60
2022-12-15T03:22:28.060Z,-1.60
2022-12-15T03:24:55.834Z,-1.60
2022-12-15T03:27:23.620Z,-1.60
2022-12-15T03:29:51.397Z,-1.60
2022-12-15T03:32:19.285Z,-1.60
2022-12-15T03:34:47.134Z,-1.60
2022-12-15T03:37:16.264Z,-1.70
2022-12-15T03:39:44.061Z,-1.70
2022-12-15T03:42:12.072Z,-1.60
2022-12-15T03:44:39.850Z,-1.50
2022-12-15T03:47:07.639Z,-1.50
2022-12-15T03:49:35.435Z,-1.50
2022-12-15T03:52:03.223Z,-1.50
2022-12-15T03:54:32.333Z,-1.70
2022-12-15T03:57:00.134Z,-1.80
2022-12-15T03:59:27.881Z,-1.80
2022-12-15T04:01:55.784Z,-1.80
2022-12-15T04:04:23.687Z,-1.70
2022-12-15T04:06:51.428Z,-1.60
2022-12-15T04:09:19.402Z,-1.60
2022-12-15T04:11:48.562Z,-1.60
2022-12-15T04:14:16.327Z,-1.70
2022-12-15T04:16:44.140Z,-1.70
2022-12-15T04:19:29.504Z,-1.70
2022-12-15T04:21:57.981Z,-1.80
2022-12-15T04:24:43.140Z,-1.70
2022-12-15T04:27:29.957Z,-1.70
2022-12-15T04:30:15.441Z,-1.70
2022-12-15T04:33:00.758Z,-1.80
2022-12-15T04:35:46.312Z,-1.90
2022-12-15T04:38:35.237Z,-1.90
2022-12-15T04:41:20.798Z,-2.00
2022-12-15T04:44:07.531Z,-2.10
2022-12-15T04:46:52.924Z,-2.20
2022-12-15T04:49:38.313Z,-2.30
2022-12-15T04:52:23.758Z,-2.30
2022-12-15T04:55:09.220Z,-2.30
2022-12-15T04:57:54.776Z,-2.20
2022-12-15T05:00:41.739Z,-2.10
2022-12-15T05:03:27.681Z,-2.10
2022-12-15T05:06:13.178Z,-2.20
2022-12-15T05:08:58.578Z,-2.20
2022-12-15T05:11:44.093Z,-2.20
2022-12-15T05:14:29.537Z,-2.20
2022-12-15T05:17:16.331Z,-2.20
2022-12-15T05:20:01.559Z,-2.20
2022-12-15T05:22:47.025Z,-2.20
2022-12-15T05:25:32.466Z,-2.20
2022-12-15T05:28:17.986Z,-2.30
2022-12-15T05:31:03.402Z,-2.50
2022-12-15T05:33:33.040Z,-2.60
2022-12-15T05:36:01.605Z,-2.70
2022-12-15T05:38:29.366Z,-2.80
2022-12-15T05:40:59.144Z,-2.90
2022-12-15T05:43:27.138Z,-2.90
2022-12-15T05:45:55.994Z,-2.90
2022-12-15T05:48:23.829Z,-2.90
2022-12-15T05:50:52.958Z,-2.80
2022-12-15T05:53:20.707Z,-2.90
2022-12-15T05:55:48.484Z,-2.80
2022-12-15T05:58:16.275Z,-2.80
2022-12-15T06:00:44.080Z,-2.70
2022-12-15T06:03:11.920Z,-2.50
2022-12-15T06:05:40.551Z,-2.40
2022-12-15T06:08:09.653Z,-2.40
2022-12-15T06:10:37.455Z,-2.50
2022-12-15T06:13:05.217Z,-2.50
2022-12-15T06:15:32.992Z,-2.40
2022-12-15T06:18:00.755Z,-2.40
2022-12-15T06:20:28.736Z,-2.40
2022-12-15T06:22:56.492Z,-2.40
2022-12-15T06:25:25.635Z,-2.30
2022-12-15T06:27:58.346Z,-2.40
2022-12-15T06:30:29.276Z,-2.40
2022-12-15T06:32:57.052Z,-2.50
2022-12-15T06:35:24.825Z,-2.50
2022-12-15T06:37:52.624Z,-2.50
2022-12-15T06:40:20.364Z,-2.60
2022-12-15T06:42:49.494Z,-2.70
2022-12-15T06:45:17.452Z,-2.80
2022-12-15T06:47:45.202Z,-2.80
2022-12-15T06:50:12.963Z,-2.70
2022-12-15T06:52:41.656Z,-2.60
2022-12-15T06:55:10.083Z,-2.40
2022-12-15T06:57:38.816Z,-2.20
2022-12-15T07:00:09.664Z,-2.30
2022-12-15T07:02:37.640Z,-2.30
2022-12-15T07:05:06.600Z,-2.20
2022-12-15T07:07:34.345Z,-2.20
2022-12-15T07:10:02.092Z,-2.20
2022-12-15T07:12:29.841Z,-2.30
2022-12-15T07:14:57.630Z,-2.30
2022-12-15T07:17:26.724Z,-2.20
2022-12-15T07:19:54.803Z,-2.20
2022-12-15T07:22:22.747Z,-2.10
2022-12-15T07:24:50.504Z,-2.20
2022-12-15T07:27:18.684Z,-2.40
2022-12-15T07:29:46.501Z,-2.40
2022-12-15T07:32:15.569Z,-2.30
2022-12-15T07:34:44.816Z,-2.30
2022-12-15T07:37:12.720Z,-2.20
2022-12-15T07:39:40.488Z,-2.20
2022-12-15T07:42:08.258Z,-2.10
2022-12-15T07:44:36.061Z,-2.10
2022-12-15T07:47:03.818Z,-2.20
2022-12-15T07:49:31.548Z,-2.30
2022-12-15T07:52:00.668Z,-2.50
2022-12-15T07:54:29.096Z,-2.60
2022-12-15T07:56:56.866Z,-2.60
2022-12-15T07:59:24.649Z,-2.60
2022-12-15T08:01:53.636Z,-2.60
2022-12-15T08:04:21.530Z,-2.70
2022-12-15T08:06:49.339Z,-2.80
2022-12-15T08:09:19.276Z,-2.90
2022-12-15T08:11:47.260Z,-3.00
2022-12-15T08:14:17.935Z,-3.10
2022-12-15T08:16:46.449Z,-3.10
2022-12-15T08:19:16.703Z,-3.20
2022-12-15T08:21:46.635Z,-3.20
2022-12-15T08:24:15.363Z,-3.00
2022-12-15T08:26:50.158Z,-2.90
2022-12-15T08:32:07.372Z,-2.70
2022-12-15T08:34:35.391Z,-2.10
2022-12-15T08:37:03.739Z,-2.00
2022-12-15T08:39:31.618Z,-2.20
2022-12-15T08:42:00.742Z,-2.50
2022-12-15T08:44:28.539Z,-2.30
2022-12-15T08:46:56.333Z,-2.30
2022-12-15T08:49:24.243Z,-2.20
2022-12-15T08:51:52.355Z,-2.30
2022-12-15T08:54:21.357Z,-2.50
2022-12-15T08:56:49.786Z,-2.90
2022-12-15T08:59:18.946Z,-3.10
2022-12-15T09:01:46.827Z,-3.30
2022-12-15T09:04:15.412Z,-3.40
2022-12-15T09:06:43.692Z,-3.50
2022-12-15T09:09:14.733Z,-3.70
2022-12-15T09:11:42.548Z,-3.70
2022-12-15T09:14:10.309Z,-3.50
2022-12-15T09:16:39.483Z,-3.20
2022-12-15T09:19:08.350Z,-3.00
2022-12-15T09:21:36.400Z,-2.80
2022-12-15T09:24:05.013Z,-2.70
2022-12-15T09:26:34.543Z,-2.70
2022-12-15T09:29:02.777Z,-2.60
2022-12-15T09:31:32.654Z,-2.60
2022-12-15T09:34:02.507Z,-2.50
2022-12-15T09:36:32.353Z,-2.30
2022-12-15T09:39:02.403Z,-2.20
2022-12-15T09:41:32.840Z,-2.10
2022-12-15T09:44:03.445Z,-2.00
2022-12-15T09:46:40.761Z,-2.00
2022-12-15T09:49:17.413Z,-2.00
2022-12-15T09:51:52.727Z,-2.00
2022-12-15T09:54:22.961Z,-2.00
2022-12-15T09:56:56.766Z,-2.10
2022-12-15T09:59:32.160Z,-2.10
2022-12-15T10:02:23.036Z,-2.30
2022-12-15T10:04:57.649Z,-2.40
2022-12-15T10:07:31.071Z,-2.50
2022-12-15T10:09:59.001Z,-2.40
2022-12-15T10:12:31.544Z,-2.20
2022-12-15T10:15:11.831Z,-2.10
2022-12-15T10:17:48.364Z,-1.90
2022-12-15T10:20:21.713Z,-1.80
2022-12-15T10:22:50.371Z,-1.70
2022-12-15T10:25:27.584Z,-1.70
2022-12-15T10:28:16.650Z,-1.60
2022-12-15T10:30:52.026Z,-1.60
2022-12-15T10:33:22.012Z,-1.50
2022-12-15T10:35:54.435Z,-1.40
2022-12-15T10:38:31.777Z,-1.30
2022-12-15T10:41:03.148Z,-1.20
2022-12-15T10:43:35.660Z,-1.20
2022-12-15T10:46:14.797Z,-1.30
2022-12-15T10:48:43.946Z,-1.30
2022-12-15T10:51:21.103Z,-1.40
2022-12-15T10:53:52.444Z,-1.40
2022-12-15T10:56:28.769Z,-1.40
2022-12-15T10:59:01.150Z,-1.50
2022-12-15T11:01:31.069Z,-1.60
2022-12-15T11:03:59.668Z,-1.50
2022-12-15T11:06:32.339Z,-1.50
2022-12-15T11:09:10.089Z,-1.40
2022-12-15T11:12:05.631Z,-1.40
2022-12-15T11:14:44.721Z,-1.40
2022-12-15T11:17:17.136Z,-1.40
2022-12-15T11:22:47.559Z,-1.30
2022-12-15T11:25:25.724Z,-1.30
2022-12-15T11:27:57.861Z,-1.20
2022-12-15T11:30:30.288Z,-1.10
2022-12-15T11:33:00.984Z,-0.90
2022-12-15T11:35:40.511Z,-0.80
2022-12-15T11:38:19.889Z,-0.60
2022-12-15T11:40:47.823Z,-0.40
2022-12-15T11:43:35.193Z,-0.20
2022-12-15T11:46:17.203Z,0.00
2022-12-15T11:48:58.352Z,0.10
2022-12-15T11:51:33.869Z,0.30
2022-12-15T11:54:16.568Z,0.40
2022-12-15T11:56:49.058Z,0.60
2022-12-15T11:59:44.592Z,0.70
2022-12-15T12:02:33.445Z,0.70
2022-12-15T12:05:23.386Z,0.80
2022-12-15T12:07:53.915Z,0.90
2022-12-15T12:10:36.404Z,1.00
2022-12-15T12:13:15.939Z,1.10
2022-12-15T12:15:55.520Z,1.20
2022-12-15T12:18:28.518Z,1.20
2022-12-15T12:21:01.730Z,1.20
2022-12-15T12:23:37.238Z,1.20
2022-12-15T12:26:11.219Z,1.20
2022-12-15T12:28:48.827Z,1.10
2022-12-15T12:31:26.177Z,1.00
2022-12-15T12:33:59.623Z,1.00
2022-12-15T12:36:27.583Z,0.90
2022-12-15T12:38:58.004Z,0.80
2022-12-15T12:41:37.296Z,0.80
2022-12-15T12:44:12.963Z,0.90
2022-12-15T12:46:46.701Z,1.00
2022-12-15T12:49:26.822Z,0.90
2022-12-15T12:51:58.511Z,0.90
2022-12-15T12:54:47.827Z,0.90
2022-12-15T12:57:35.323Z,0.80
2022-12-15T13:00:13.965Z,0.60
2022-12-15T13:02:58.052Z,0.50
2022-12-15T13:05:32.218Z,0.40
2022-12-15T13:12:15.054Z,0.20
2022-12-15T13:14:51.998Z,0.10
2022-12-15T13:17:30.159Z,0.00
2022-12-15T13:20:25.835Z,-0.20
2022-12-15T13:22:54.632Z,-0.40
2022-12-15T13:25:37.631Z,-0.60
2022-12-15T13:28:20.424Z,-0.90
2022-12-15T13:31:28.465Z,-1.10
2022-12-15T13:34:02.200Z,-1.40
2022-12-15T13:36:55.462Z,-1.50
2022-12-15T13:39:56.889Z,-1.40
2022-12-15T13:42:52.973Z,-1.20
2022-12-15T13:45:42.968Z,-1.00
2022-12-15T13:48:31.253Z,-0.90
2022-12-15T13:51:14.332Z,-0.80
2022-12-15T13:53:45.483Z,-0.70
2022-12-15T13:56:40.845Z,-0.60
2022-12-15T13:59:21.237Z,-0.50
2022-12-15T14:01:51.291Z,-0.30
2022-12-15T14:04:21.711Z,-0.30
2022-12-15T14:06:52.644Z,-0.20
2022-12-15T14:09:28.603Z,-0.20
2022-12-15T14:11:56.703Z,-0.10
2022-12-15T14:14:28.626Z,-0.10
2022-12-15T14:17:00.197Z,-0.20
2022-12-15T14:19:38.860Z,-0.20
2022-12-15T14:25:19.023Z,-0.20
2022-12-15T14:27:50.833Z,-0.30
2022-12-15T14:30:29.190Z,-0.40
2022-12-15T14:33:02.633Z,-0.60
2022-12-15T14:35:37.337Z,-0.70
2022-12-15T14:38:09.089Z,-0.90
2022-12-15T14:40:38.563Z,-1.00
2022-12-15T14:43:10.359Z,-1.00
2022-12-15T14:45:38.404Z,-1.00
2022-12-15T14:51:01.546Z,-0.90
2022-12-15T14:53:33.496Z,-0.90
2022-12-15T14:56:14.799Z,-1.00
2022-12-15T14:58:43.111Z,-1.00
2022-12-15T15:01:24.663Z,-1.10
2022-12-15T15:03:09.090Z,-1.40
2022-12-15T15:03:09.494Z,-0.20
2022-12-15T15:03:12.903Z,0.30
2022-12-15T15:04:00.680Z,-1.10
2022-12-15T15:06:36.550Z,-1.20
2022-12-15T15:09:17.548Z,-1.30
2022-12-15T15:11:45.838Z,-1.50
2022-12-15T15:14:17.913Z,-1.60
2022-12-15T15:16:46.320Z,-1.70
2022-12-15T15:19:21.637Z,-1.80
2022-12-15T15:21:50.803Z,-1.80
2022-12-15T15:24:30.539Z,-1.90
2022-12-15T15:27:24.650Z,-2.00
2022-12-15T15:29:52.853Z,-2.00
2022-12-15T15:32:25.027Z,-2.00
2022-12-15T15:34:52.828Z,-2.10
2022-12-15T15:37:25.456Z,-2.20
2022-12-15T15:39:55.961Z,-2.30
2022-12-15T15:42:27.897Z,-2.30
2022-12-15T15:45:00.094Z,-2.30
2022-12-15T15:47:28.509Z,-2.30
2022-12-15T15:49:59.468Z,-2.30
2022-12-15T15:52:31.833Z,-2.40
2022-12-15T15:54:59.968Z,-2.50
2022-12-15T15:57:27.708Z,-2.60
2022-12-15T15:59:55.570Z,-2.50
2022-12-15T16:02:23.627Z,-2.60
2022-12-15T16:04:51.528Z,-2.60
2022-12-15T16:07:24.074Z,-2.50
2022-12-15T16:09:54.293Z,-2.40
2022-12-15T16:12:28.984Z,-2.40
2022-12-15T16:14:57.371Z,-2.30
2022-12-15T16:17:25.445Z,-2.20
2022-12-15T16:19:53.308Z,-2.20
2022-12-15T16:22:22.678Z,-2.20
2022-12-15T16:24:50.617Z,-2.10
2022-12-15T16:27:19.785Z,-2.10
2022-12-15T16:29:47.534Z,-2.10
2022-12-15T16:32:15.412Z,-2.10
2022-12-15T16:34:43.183Z,-2.10
2022-12-15T16:37:22.241Z,-2.10
2022-12-15T16:39:50.043Z,-2.10
2022-12-15T16:42:19.151Z,-2.20
2022-12-15T16:44:46.964Z,-2.30
2022-12-15T16:47:14.713Z,-2.20
2022-12-15T16:49:42.558Z,-2.30
2022-12-15T16:52:19.361Z,-2.30
2022-12-15T16:54:48.972Z,-2.20
2022-12-15T16:57:16.854Z,-2.20
2022-12-15T16:59:45.987Z,-2.20
2022-12-15T17:02:27.971Z,-2.10
2022-12-15T17:04:56.081Z,-2.00
2022-12-15T17:07:26.051Z,-2.00
2022-12-15T17:09:53.884Z,-2.00
2022-12-15T17:12:21.712Z,-2.00
2022-12-15T17:14:50.791Z,-2.00
2022-12-15T17:17:20.415Z,-2.00
2022-12-15T17:20:19.708Z,-2.00
2022-12-15T17:22:37.558Z,-2.00
2022-12-15T17:25:06.135Z,-2.10
2022-12-15T17:27:33.949Z,-2.20
2022-12-15T17:30:03.504Z,-2.20
2022-12-15T17:32:31.287Z,-2.20
2022-12-15T17:34:59.081Z,-2.10
2022-12-15T17:37:30.557Z,-2.10
2022-12-15T17:40:03.117Z,-2.10
2022-12-15T17:42:30.872Z,-2.00
2022-12-15T17:44:58.742Z,-2.00
2022-12-15T17:47:30.265Z,-2.00
2022-12-15T17:49:58.027Z,-2.00
2022-12-15T17:52:28.986Z,-1.90
2022-12-15T17:54:57.416Z,-1.90
2022-12-15T17:57:25.635Z,-1.90
2022-12-15T17:59:53.867Z,-1.90
2022-12-15T18:02:21.736Z,-2.00
2022-12-15T18:04:50.969Z,-2.00
2022-12-15T18:07:21.012Z,-2.10
2022-12-15T18:09:49.679Z,-2.20
2022-12-15T18:12:19.560Z,-2.20
2022-12-15T18:14:47.689Z,-2.30
2022-12-15T18:17:15.743Z,-2.30
2022-12-15T18:19:43.527Z,-2.10
2022-12-15T18:22:15.213Z,-2.00
2022-12-15T18:24:43.092Z,-2.10
2022-12-15T18:27:23.192Z,-2.00
2022-12-15T18:29:51.161Z,-2.10
2022-12-15T18:32:20.227Z,-2.00
2022-12-15T18:34:48.007Z,-2.00
2022-12-15T18:37:19.097Z,-2.10
2022-12-15T18:39:47.593Z,-2.10
2022-12-15T18:42:17.329Z,-2.10
2022-12-15T18:44:48.751Z,-2.10
2022-12-15T18:47:18.041Z,-2.10
2022-12-15T18:49:46.288Z,-2.10
2022-12-15T18:52:18.763Z,-2.10
2022-12-15T18:54:47.672Z,-2.10
2022-12-15T18:57:27.802Z,-2.30
2022-12-15T18:59:58.278Z,-2.40
2022-12-15T19:02:26.113Z,-2.60
2022-12-15T19:04:54.019Z,-2.70
2022-12-15T19:07:23.179Z,-2.80
2022-12-15T19:09:51.492Z,-2.80
2022-12-15T19:12:19.554Z,-2.70
2022-12-15T19:14:48.799Z,-2.70
2022-12-15T19:17:35.675Z,-2.70
2022-12-15T19:20:23.349Z,-2.60
2022-12-15T19:22:53.182Z,-2.50
2022-12-15T19:25:26.151Z,-2.50
2022-12-15T19:27:58.489Z,-2.60
2022-12-15T19:30:28.691Z,-2.60
2022-12-15T19:32:59.383Z,-2.60
2022-12-15T19:35:28.940Z,-2.60
2022-12-15T19:37:59.697Z,-2.70
2022-12-15T19:40:30.089Z,-2.70
2022-12-15T19:42:58.256Z,-2.80
2022-12-15T19:45:27.780Z,-2.90
2022-12-15T19:47:55.892Z,-2.90
2022-12-15T19:50:25.895Z,-2.80
2022-12-15T19:52:58.609Z,-2.70
2022-12-15T19:55:29.220Z,-2.60
2022-12-15T19:57:57.019Z,-2.60
2022-12-15T20:00:25.681Z,-2.60
2022-12-15T20:02:55.657Z,-2.60
2022-12-15T20:05:24.740Z,-2.50
2022-12-15T20:07:53.422Z,-2.40
2022-12-15T20:10:31.707Z,-2.30
2022-12-15T20:13:00.643Z,-2.20
2022-12-15T20:15:28.728Z,-2.10
2022-12-15T20:17:57.213Z,-2.10
2022-12-15T20:20:27.235Z,-2.00
2022-12-15T20:22:57.523Z,-1.90
2022-12-15T20:25:28.888Z,-1.90
2022-12-15T20:27:56.701Z,-1.80
2022-12-15T20:30:26.795Z,-1.80
2022-12-15T20:32:55.876Z,-1.80
2022-12-15T20:35:23.882Z,-1.70
2022-12-15T20:37:52.480Z,-1.70
2022-12-15T20:40:23.492Z,-1.70
2022-12-15T20:42:53.879Z,-1.60
2022-12-15T20:45:24.316Z,-1.60
2022-12-15T20:47:54.383Z,-1.50
2022-12-15T20:50:26.761Z,-1.50
2022-12-15T20:52:55.469Z,-1.50
2022-12-15T20:55:23.282Z,-1.50
2022-12-15T20:57:52.424Z,-1.40
2022-12-15T21:00:20.665Z,-1.40
2022-12-15T21:02:49.700Z,-1.40
2022-12-15T21:05:22.313Z,-1.30
2022-12-15T21:07:50.605Z,-1.30
2022-12-15T21:10:20.674Z,-1.30
2022-12-15T21:12:50.418Z,-1.30
2022-12-15T21:15:22.209Z,-1.20
2022-12-15T21:18:03.874Z,-1.30
2022-12-15T21:20:40.958Z,-1.20
2022-12-15T21:23:18.397Z,-1.20
2022-12-15T21:25:46.437Z,-1.20
2022-12-15T21:28:14.528Z,-1.20
2022-12-15T21:30:44.108Z,-1.20
2022-12-15T21:33:11.929Z,-1.20
2022-12-15T21:35:40.720Z,-1.20
2022-12-15T21:38:26.796Z,-1.20
2022-12-15T21:40:59.620Z,-1.20
2022-12-15T21:43:31.188Z,-1.10
2022-12-15T21:46:01.706Z,-1.20
2022-12-15T21:48:47.283Z,-1.10
2022-12-15T21:51:17.380Z,-1.10
2022-12-15T21:53:47.209Z,-1.10
2022-12-15T21:56:16.923Z,-1.10
2022-12-15T21:58:45.858Z,-1.10
2022-12-15T22:01:16.576Z,-1.10
2022-12-15T22:03:49.259Z,-1.10
2022-12-15T22:06:21.535Z,-1.10
2022-12-15T22:08:49.662Z,-1.10
2022-12-15T22:11:22.320Z,-1.10
2022-12-15T22:13:52.593Z,-1.00
2022-12-15T22:16:24.569Z,-1.00
2022-12-15T22:18:54.888Z,-0.90
2022-12-15T22:21:22.980Z,-0.90
2022-12-15T22:23:51.076Z,-0.90
2022-12-15T22:26:22.459Z,-0.90
2022-12-15T22:28:50.875Z,-0.90
2022-12-15T22:31:19.689Z,-0.90
2022-12-15T22:33:48.916Z,-0.90
2022-12-15T22:36:16.702Z,-0.90
2022-12-15T22:38:45.031Z,-0.90
2022-12-15T22:41:19.302Z,-0.90
2022-12-15T22:43:52.116Z,-0.90
2022-12-15T22:46:21.800Z,-0.90
2022-12-15T22:48:54.674Z,-0.90
2022-12-15T22:51:22.985Z,-0.80
2022-12-15T22:53:50.742Z,-0.80
2022-12-15T22:56:25.503Z,-0.80
2022-12-15T22:58:57.383Z,-0.80
2022-12-15T23:01:26.715Z,-0.80
2022-12-15T23:03:56.439Z,-0.70
2022-12-15T23:06:24.795Z,-0.70
2022-12-15T23:08:55.818Z,-0.70
2022-12-15T23:11:39.390Z,-0.60
2022-12-15T23:14:09.072Z,-0.60
2022-12-15T23:16:37.067Z,-0.60
2022-12-15T23:19:07.686Z,-0.60
2022-12-15T23:21:36.972Z,-0.70
2022-12-15T23:24:04.923Z,-0.70
2022-12-15T23:26:32.793Z,-0.80
2022-12-15T23:29:00.579Z,-0.80
2022-12-15T23:31:28.807Z,-0.80
2022-12-15T23:33:56.701Z,-0.80
2022-12-15T23:36:25.841Z,-0.80
2022-12-15T23:38:54.939Z,-0.90
2022-12-15T23:41:22.695Z,-0.90
2022-12-15T23:43:50.492Z,-0.90
2022-12-15T23:46:18.990Z,-0.90
2022-12-15T23:48:47.412Z,-1.00
2022-12-15T23:51:16.751Z,-1.00
2022-12-15T23:53:47.920Z,-1.00
2022-12-15T23:56:18.161Z,-1.00
2022-12-15T23:58:48.855Z,-1.00
